Time;durP1;ratioP1;P1;durP2;ratioP2;P2;SDS_P1;SDS_P2;PMS_P1;PMS_P2;Temp;Humidity;BMP_temperature;BMP_pressure;BME280_temperature;BME280_humidity;BME280_pressure;Samples;Min_cycle;Max_cycle;Signal;HPM_P1;HPM_P2
2021/04/06 00:02:11;;;;;;;9.40;8.48;;;4.90;99.90;;;;;;5074325;28;20221;-71
2021/04/06 00:04:41;;;;;;;11.85;8.60;;;4.90;99.90;;;;;;5074736;28;20165;-71
2021/04/06 00:07:09;;;;;;;9.85;8.85;;;4.90;99.90;;;;;;5073978;28;20180;-71
2021/04/06 00:09:37;;;;;;;9.07;8.10;;;4.90;99.90;;;;;;5074627;28;20173;-71
2021/04/06 00:12:06;;;;;;;10.23;8.10;;;4.90;99.90;;;;;;5073599;28;20196;-71
2021/04/06 00:14:33;;;;;;;11.23;7.93;;;5.00;99.90;;;;;;5074774;28;20211;-71
2021/04/06 00:17:07;;;;;;;10.75;8.88;;;4.90;99.90;;;;;;5074673;28;20231;-72
2021/04/06 00:19:37;;;;;;;9.55;8.65;;;5.00;99.90;;;;;;5075942;28;20550;-72
2021/04/06 00:22:04;;;;;;;11.38;8.98;;;5.10;99.90;;;;;;5075719;28;20168;-72
2021/04/06 00:24:33;;;;;;;10.40;8.40;;;5.10;99.90;;;;;;5074814;28;20177;-72
2021/04/06 00:27:11;;;;;;;10.48;8.50;;;5.10;99.90;;;;;;5074606;28;20213;-72
2021/04/06 00:29:38;;;;;;;10.50;7.60;;;5.10;99.90;;;;;;5074331;28;20171;-72
2021/04/06 00:32:06;;;;;;;8.57;7.68;;;5.10;99.90;;;;;;5073758;28;20169;-72
2021/04/06 00:34:33;;;;;;;8.63;7.80;;;5.20;99.90;;;;;;5074025;28;20173;-72
2021/04/06 00:37:08;;;;;;;10.20;7.30;;;5.20;99.90;;;;;;5073999;28;20617;-72
2021/04/06 00:39:36;;;;;;;10.05;8.10;;;5.20;99.90;;;;;;5073582;28;20251;-72
2021/04/06 00:42:14;;;;;;;12.13;8.98;;;5.20;99.80;;;;;;5073561;28;20263;-73
2021/04/06 00:44:48;;;;;;;12.15;8.80;;;5.20;99.80;;;;;;5073381;28;20251;-72
2021/04/06 00:47:15;;;;;;;12.25;9.70;;;5.20;99.90;;;;;;5069326;28;20170;-72
2021/04/06 00:49:42;;;;;;;11.27;9.50;;;5.30;99.90;;;;;;5072676;28;20175;-72
2021/04/06 00:52:10;;;;;;;10.32;9.18;;;5.30;99.90;;;;;;5071840;28;20608;-72
2021/04/06 00:54:36;;;;;;;8.43;7.63;;;5.30;99.90;;;;;;5072929;28;20177;-72
2021/04/06 00:57:06;;;;;;;12.15;8.20;;;5.30;99.90;;;;;;5071960;28;20261;-73
2021/04/06 00:59:33;;;;;;;8.90;7.97;;;5.30;99.90;;;;;;5072562;28;20204;-72
2021/04/06 01:02:08;;;;;;;9.18;6.88;;;5.30;99.90;;;;;;5072258;28;20512;-72
2021/04/06 01:04:38;;;;;;;6.95;6.20;;;5.20;99.90;;;;;;5069713;28;20172;-72
2021/04/06 01:07:08;;;;;;;9.43;6.68;;;5.20;99.90;;;;;;5072371;28;20542;-72
2021/04/06 01:09:49;;;;;;;7.13;5.82;;;5.20;99.90;;;;;;5074222;28;20169;-71
2021/04/06 01:12:17;;;;;;;9.00;6.63;;;5.20;99.90;;;;;;5072349;28;20201;-72
2021/04/06 01:14:46;;;;;;;7.10;6.40;;;5.20;99.90;;;;;;5073504;28;20252;-71
2021/04/06 01:17:14;;;;;;;8.43;6.95;;;5.20;99.90;;;;;;5072840;28;20640;-72
2021/04/06 01:19:41;;;;;;;5.50;4.90;;;5.20;99.90;;;;;;5072166;28;20176;-72
2021/04/06 01:22:09;;;;;;;5.68;5.18;;;5.20;99.90;;;;;;5072897;28;20507;-72
2021/04/06 01:24:36;;;;;;;7.38;5.70;;;5.20;99.90;;;;;;5073623;28;20219;-71
2021/04/06 01:27:03;;;;;;;7.10;5.10;;;5.30;99.90;;;;;;5073079;28;20177;-73
2021/04/06 01:29:29;;;;;;;6.35;5.50;;;5.30;99.90;;;;;;5073359;28;20234;-72
2021/04/06 01:31:58;;;;;;;6.30;5.70;;;5.30;99.90;;;;;;5073465;28;20629;-71
2021/04/06 01:34:24;;;;;;;9.55;5.70;;;5.20;99.90;;;;;;5071899;28;20173;-72
2021/04/06 01:36:54;;;;;;;6.65;6.00;;;5.20;99.80;;;;;;5073281;28;20243;-72
2021/04/06 01:39:26;;;;;;;6.32;5.72;;;5.10;99.90;;;;;;5072058;28;20177;-72
2021/04/06 01:42:04;;;;;;;6.68;5.57;;;5.10;99.90;;;;;;5073198;28;20187;-72
2021/04/06 01:44:31;;;;;;;5.82;4.90;;;5.20;99.90;;;;;;5073257;28;20325;-72
2021/04/06 01:46:57;;;;;;;6.05;5.30;;;5.20;99.90;;;;;;5073345;28;20188;-71
2021/04/06 01:49:25;;;;;;;5.88;5.32;;;5.20;99.70;;;;;;5071903;28;20203;-72
2021/04/06 01:51:55;;;;;;;5.65;4.97;;;5.20;99.90;;;;;;5073071;28;20542;-72
2021/04/06 01:54:21;;;;;;;5.53;5.03;;;5.30;99.90;;;;;;5072306;28;20180;-71
2021/04/06 01:59:28;;;;;;;6.53;5.72;;;5.40;99.70;;;;;;5072183;28;20382;-72
2021/04/06 02:01:55;;;;;;;4.95;4.50;;;5.40;99.90;;;;;;5072921;28;20169;-71
2021/04/06 02:04:23;;;;;;;5.57;4.88;;;5.40;99.50;;;;;;5071901;28;20189;-72
2021/04/06 02:06:53;;;;;;;5.05;4.60;;;5.30;99.30;;;;;;5072197;28;20538;-72
2021/04/06 02:09:20;;;;;;;5.10;4.60;;;5.30;99.70;;;;;;5072046;28;20158;-72
2021/04/06 02:11:47;;;;;;;4.88;4.03;;;5.40;99.10;;;;;;5072780;28;20185;-72
2021/04/06 02:14:14;;;;;;;4.90;4.47;;;5.40;99.20;;;;;;5070699;28;20223;-70
2021/04/06 02:17:05;;;;;;;7.20;4.90;;;5.50;98.80;;;;;;5072254;28;20205;-70
2021/04/06 02:19:39;;;;;;;5.22;4.22;;;5.60;99.10;;;;;;5072052;28;20625;-70
2021/04/06 02:22:16;;;;;;;4.32;3.92;;;5.60;98.30;;;;;;5071730;28;20227;-70
2021/04/06 02:24:50;;;;;;;5.13;4.60;;;5.60;98.60;;;;;;5072220;28;20219;-69
2021/04/06 02:27:18;;;;;;;4.82;4.38;;;5.60;98.30;;;;;;5071760;28;20169;-70
2021/04/06 02:29:58;;;;;;;8.10;5.15;;;5.50;98.20;;;;;;5072466;28;20197;-69
2021/04/06 02:32:31;;;;;;;4.28;3.63;;;5.50;98.60;;;;;;5071723;28;20218;-69
2021/04/06 02:35:16;;;;;;;4.97;4.60;;;5.50;98.40;;;;;;5072361;28;20315;-69
2021/04/06 02:37:44;;;;;;;8.10;4.70;;;5.50;99.30;;;;;;5070595;28;20209;-69
2021/04/06 02:40:15;;;;;;;7.20;4.80;;;5.50;98.70;;;;;;5071429;28;20196;-70
2021/04/06 02:42:44;;;;;;;6.22;5.00;;;5.40;98.90;;;;;;5072018;28;20173;-70
2021/04/06 02:45:20;;;;;;;4.57;4.15;;;5.50;98.80;;;;;;5071471;28;20181;-70
2021/04/06 02:47:48;;;;;;;5.63;4.90;;;5.40;98.90;;;;;;5072311;28;20185;-70
2021/04/06 02:50:26;;;;;;;6.10;4.82;;;5.30;98.80;;;;;;5071414;28;20183;-70
2021/04/06 02:52:52;;;;;;;7.22;4.80;;;5.30;98.90;;;;;;5071774;28;20165;-70
2021/04/06 02:55:21;;;;;;;6.72;4.47;;;5.40;99.50;;;;;;5071340;28;20173;-69
2021/04/06 02:57:48;;;;;;;7.55;4.72;;;5.50;99.40;;;;;;5071856;28;20283;-69
2021/04/06 03:00:26;;;;;;;6.13;4.65;;;5.40;99.00;;;;;;5071059;28;20169;-70
2021/04/06 03:02:55;;;;;;;6.65;5.15;;;5.40;99.20;;;;;;5072036;28;20165;-70
2021/04/06 03:05:32;;;;;;;7.03;4.88;;;5.40;99.40;;;;;;5071293;28;20582;-70
2021/04/06 03:07:59;;;;;;;7.32;4.47;;;5.40;99.40;;;;;;5071831;28;20585;-70
2021/04/06 03:10:27;;;;;;;9.55;5.65;;;5.50;99.30;;;;;;5071208;28;20180;-70
2021/04/06 03:12:53;;;;;;;6.93;6.25;;;5.50;99.30;;;;;;5071954;28;20217;-69
2021/04/06 03:15:26;;;;;;;6.60;5.73;;;5.50;99.50;;;;;;5071180;28;20181;-70
2021/04/06 03:17:56;;;;;;;7.10;5.47;;;5.50;99.00;;;;;;5072052;28;20826;-70
2021/04/06 03:20:26;;;;;;;7.78;5.97;;;5.50;98.90;;;;;;5071090;28;20506;-70
2021/04/06 03:22:55;;;;;;;7.40;5.68;;;5.50;99.20;;;;;;5071952;28;20566;-70
2021/04/06 03:25:22;;;;;;;8.38;6.20;;;5.40;98.90;;;;;;5070539;28;20256;-70
2021/04/06 03:27:49;;;;;;;7.80;6.82;;;5.40;99.00;;;;;;5071655;28;20181;-70
2021/04/06 03:30:31;;;;;;;7.82;6.15;;;5.50;99.10;;;;;;5071092;28;20226;-70
2021/04/06 03:33:15;;;;;;;12.32;6.80;;;5.50;99.00;;;;;;5072167;28;20162;-70
2021/04/06 03:35:46;;;;;;;11.23;7.25;;;5.60;98.90;;;;;;5074666;28;20231;-69
2021/04/06 03:38:13;;;;;;;9.25;7.72;;;5.60;98.80;;;;;;5074537;28;20284;-70
2021/04/06 03:40:40;;;;;;;8.93;7.93;;;5.70;98.80;;;;;;5075642;28;20579;-69
2021/04/06 03:43:21;;;;;;;10.52;7.70;;;5.60;98.60;;;;;;5075318;28;20181;-69
2021/04/06 03:45:57;;;;;;;12.77;8.15;;;5.60;99.00;;;;;;5075243;28;20533;-69
2021/04/06 03:48:25;;;;;;;11.60;8.65;;;5.60;99.30;;;;;;5074627;28;20212;-69
2021/04/06 03:50:53;;;;;;;15.52;8.38;;;5.60;99.30;;;;;;5075085;28;20169;-69
2021/04/06 03:53:20;;;;;;;11.18;8.18;;;5.60;99.10;;;;;;5074306;28;20576;-69
2021/04/06 03:56:02;;;;;;;9.40;8.55;;;5.60;99.00;;;;;;5075329;28;20227;-69
2021/04/06 03:58:30;;;;;;;8.75;7.75;;;5.70;99.00;;;;;;5073016;28;20611;-69
2021/04/06 04:00:56;;;;;;;12.48;8.40;;;5.60;98.80;;;;;;5073312;28;20178;-69
2021/04/06 04:03:22;;;;;;;9.23;7.83;;;5.60;99.10;;;;;;5074125;28;20227;-70
2021/04/06 04:05:51;;;;;;;7.97;6.60;;;5.60;99.00;;;;;;5075153;28;20565;-69
2021/04/06 04:08:16;;;;;;;10.88;7.03;;;5.60;98.60;;;;;;5073075;28;20185;-70
2021/04/06 04:10:42;;;;;;;7.90;6.77;;;5.60;98.90;;;;;;5074261;28;20184;-72
2021/04/06 04:13:08;;;;;;;8.97;6.63;;;5.60;99.20;;;;;;5075046;28;20188;-72
2021/04/06 04:15:34;;;;;;;9.87;7.37;;;5.60;99.20;;;;;;5073797;28;20490;-72
2021/04/06 04:18:01;;;;;;;13.53;7.10;;;5.60;98.80;;;;;;5074331;28;20686;-72
2021/04/06 04:20:27;;;;;;;10.07;8.90;;;5.60;98.70;;;;;;5074035;28;20169;-72
2021/04/06 04:22:53;;;;;;;8.77;8.00;;;5.60;99.00;;;;;;5075118;28;20204;-72
2021/04/06 04:25:19;;;;;;;9.50;7.20;;;5.50;98.60;;;;;;5073704;28;20174;-72
2021/04/06 04:27:46;;;;;;;8.20;7.45;;;5.60;98.70;;;;;;5074349;28;20204;-72
2021/04/06 04:30:13;;;;;;;8.18;7.30;;;5.70;98.60;;;;;;5074440;28;20169;-73
2021/04/06 04:32:40;;;;;;;7.50;6.65;;;5.60;98.40;;;;;;5074455;28;20173;-72
2021/04/06 04:35:07;;;;;;;8.65;6.57;;;5.60;98.70;;;;;;5074392;28;20213;-72
2021/04/06 04:37:33;;;;;;;6.85;6.18;;;5.60;98.80;;;;;;5072347;28;20205;-72
2021/04/06 04:39:59;;;;;;;5.13;4.60;;;5.50;99.30;;;;;;5073040;28;20286;-72
2021/04/06 04:42:24;;;;;;;7.20;5.50;;;5.30;99.90;;;;;;5074102;28;20416;-72
2021/04/06 04:44:50;;;;;;;5.00;4.70;;;5.20;99.90;;;;;;5073202;28;20181;-72
2021/04/06 04:47:16;;;;;;;4.30;3.90;;;5.20;99.90;;;;;;5071982;28;20205;-74
2021/04/06 04:49:41;;;;;;;3.90;3.50;;;5.10;99.90;;;;;;5074017;28;20199;-72
2021/04/06 04:52:07;;;;;;;4.43;4.13;;;5.20;99.90;;;;;;5074007;28;20176;-72
2021/04/06 04:54:33;;;;;;;3.97;3.67;;;5.20;99.90;;;;;;5072428;28;20169;-72
2021/04/06 04:57:00;;;;;;;4.00;3.70;;;5.20;99.90;;;;;;5073700;28;20616;-72
2021/04/06 04:59:26;;;;;;;3.95;3.60;;;5.30;99.90;;;;;;5073401;28;20680;-72
2021/04/06 05:01:51;;;;;;;5.00;4.60;;;5.30;99.60;;;;;;5073873;28;20193;-72
2021/04/06 05:04:17;;;;;;;5.40;5.10;;;5.20;99.90;;;;;;5072803;28;20416;-72
2021/04/06 05:06:43;;;;;;;4.37;4.10;;;5.30;99.70;;;;;;5072381;28;20423;-72
2021/04/06 05:09:09;;;;;;;4.97;4.57;;;5.30;99.50;;;;;;5073073;28;20180;-71
2021/04/06 05:11:36;;;;;;;5.53;4.63;;;5.30;99.20;;;;;;5073552;28;20169;-72
2021/04/06 05:14:02;;;;;;;6.93;6.38;;;5.30;99.40;;;;;;5073620;28;20180;-72
2021/04/06 05:16:28;;;;;;;5.13;4.60;;;5.30;99.60;;;;;;5073659;28;20310;-71
2021/04/06 05:18:54;;;;;;;4.88;4.57;;;5.20;99.80;;;;;;5074182;28;20177;-71
2021/04/06 05:21:20;;;;;;;4.90;4.50;;;5.20;99.80;;;;;;5072855;28;20178;-69
2021/04/06 05:23:46;;;;;;;6.57;6.27;;;5.20;99.20;;;;;;5074007;28;20252;-69
2021/04/06 05:26:11;;;;;;;4.97;4.53;;;5.10;99.50;;;;;;5073480;28;20250;-69
2021/04/06 05:28:37;;;;;;;6.73;4.80;;;5.10;99.40;;;;;;5073116;28;20181;-69
2021/04/06 05:31:03;;;;;;;4.87;3.97;;;5.10;99.40;;;;;;5073546;28;20188;-69
2021/04/06 05:33:28;;;;;;;8.37;6.33;;;5.10;99.50;;;;;;5073130;28;20180;-69
2021/04/06 05:35:54;;;;;;;6.30;5.80;;;5.10;99.40;;;;;;5073024;28;20247;-69
2021/04/06 05:38:20;;;;;;;4.70;4.30;;;5.10;99.90;;;;;;5073067;28;20217;-69
2021/04/06 05:40:46;;;;;;;4.73;4.27;;;5.00;99.90;;;;;;5073644;28;20237;-69
2021/04/06 05:43:15;;;;;;;5.80;4.93;;;5.00;99.90;;;;;;5073541;28;20161;-69
2021/04/06 05:45:51;;;;;;;3.85;3.55;;;5.00;99.90;;;;;;5072862;28;20518;-69
2021/04/06 05:48:17;;;;;;;4.32;3.55;;;5.00;99.90;;;;;;5072293;28;20199;-69
2021/04/06 05:50:49;;;;;;;7.03;4.47;;;5.00;99.90;;;;;;5053507;28;20177;-69
2021/04/06 05:53:15;;;;;;;4.45;3.38;;;5.00;99.90;;;;;;5053589;28;20252;-69
2021/04/06 05:55:41;;;;;;;6.60;5.20;;;5.00;99.40;;;;;;5063785;28;20566;-72
2021/04/06 05:58:07;;;;;;;5.13;4.50;;;5.00;99.20;;;;;;5073195;28;20214;-72
2021/04/06 06:00:33;;;;;;;3.88;3.53;;;4.90;99.40;;;;;;5071556;28;20648;-72
2021/04/06 06:03:00;;;;;;;6.07;5.55;;;4.90;99.10;;;;;;5072933;28;20563;-72
2021/04/06 06:05:27;;;;;;;3.63;3.47;;;4.90;99.30;;;;;;5071625;28;20211;-73
2021/04/06 06:07:53;;;;;;;4.40;4.00;;;4.80;99.30;;;;;;5072796;28;20514;-72
2021/04/06 06:10:33;;;;;;;5.67;5.20;;;4.70;99.30;;;;;;5072419;28;20303;-72
2021/04/06 06:13:15;;;;;;;5.80;5.38;;;4.80;99.30;;;;;;5072477;28;20211;-73
2021/04/06 06:15:41;;;;;;;3.75;3.45;;;4.90;99.50;;;;;;5071629;28;20344;-73
2021/04/06 06:18:07;;;;;;;7.07;4.15;;;4.90;99.30;;;;;;5072382;28;20222;-73
2021/04/06 06:20:34;;;;;;;3.97;3.67;;;4.90;99.20;;;;;;5071134;28;20633;-73
2021/04/06 06:23:23;;;;;;;4.32;3.60;;;4.90;98.90;;;;;;5072599;28;20415;-72
2021/04/06 06:26:06;;;;;;;3.70;3.33;;;5.00;98.70;;;;;;5073359;28;20601;-71
2021/04/06 06:28:35;;;;;;;5.45;4.95;;;5.00;98.80;;;;;;5072282;28;20621;-69
2021/04/06 06:31:04;;;;;;;4.57;4.25;;;5.10;99.10;;;;;;5072724;28;20636;-69
2021/04/06 06:33:32;;;;;;;4.13;3.83;;;5.00;99.10;;;;;;5072178;28;20198;-70
2021/04/06 06:35:59;;;;;;;5.05;4.63;;;5.00;99.00;;;;;;5072321;28;20220;-69
2021/04/06 06:38:25;;;;;;;5.80;5.50;;;5.00;98.90;;;;;;5071898;28;20204;-70
2021/04/06 06:40:53;;;;;;;7.73;7.33;;;5.10;98.90;;;;;;5071223;28;20169;-69
2021/04/06 06:43:23;;;;;;;7.32;6.65;;;5.20;98.70;;;;;;5070799;28;20176;-70
2021/04/06 06:45:51;;;;;;;7.30;6.60;;;5.20;98.60;;;;;;5070922;28;20203;-69
2021/04/06 06:48:26;;;;;;;8.00;7.30;;;5.30;98.40;;;;;;5071745;28;20355;-70
2021/04/06 06:50:53;;;;;;;10.20;6.45;;;5.30;98.60;;;;;;5072339;28;20259;-70
2021/04/06 06:53:35;;;;;;;10.70;9.40;;;5.40;98.60;;;;;;5072353;28;20499;-69
2021/04/06 06:56:01;;;;;;;12.07;8.05;;;5.60;98.30;;;;;;5072508;28;20686;-70
2021/04/06 06:58:35;;;;;;;9.27;8.32;;;5.60;98.20;;;;;;5071319;28;20201;-70
2021/04/06 07:01:02;;;;;;;10.70;7.68;;;5.70;97.70;;;;;;5072342;28;20211;-70
2021/04/06 07:03:28;;;;;;;13.00;10.38;;;5.80;97.50;;;;;;5071233;28;20256;-70
2021/04/06 07:05:54;;;;;;;11.73;10.52;;;5.80;97.20;;;;;;5072440;28;20181;-70
2021/04/06 07:08:34;;;;;;;12.35;9.75;;;5.80;97.20;;;;;;5071074;28;20185;-76
2021/04/06 07:11:03;;;;;;;17.33;12.10;;;5.80;97.20;;;;;;5076181;28;20173;-82
2021/04/06 07:13:33;;;;;;;19.00;13.50;;;5.70;97.20;;;;;;5060983;28;20169;-74
2021/04/06 07:16:00;;;;;;;14.15;10.45;;;5.70;97.30;;;;;;5076461;28;20530;-74
2021/04/06 07:18:27;;;;;;;13.63;10.70;;;5.70;97.20;;;;;;5075678;28;20205;-74
2021/04/06 07:21:01;;;;;;;15.35;11.23;;;5.60;97.20;;;;;;5075980;28;20181;-74
2021/04/06 07:23:37;;;;;;;18.17;11.07;;;5.60;97.20;;;;;;5074886;28;20187;-74
2021/04/06 07:26:10;;;;;;;8.05;7.25;;;5.60;97.50;;;;;;5074905;28;20234;-74
2021/04/06 07:28:37;;;;;;;10.80;9.70;;;5.70;98.10;;;;;;5074504;28;20173;-74
2021/04/06 07:31:04;;;;;;;9.82;7.93;;;5.70;97.50;;;;;;5075592;28;20167;-74
2021/04/06 07:33:32;;;;;;;7.65;6.95;;;5.60;97.60;;;;;;5075870;28;20322;-74
2021/04/06 07:36:04;;;;;;;11.13;7.40;;;5.60;97.20;;;;;;5076707;28;20299;-74
2021/04/06 07:38:34;;;;;;;9.07;7.03;;;5.60;97.60;;;;;;5075426;28;20280;-74
2021/04/06 07:41:00;;;;;;;8.25;7.45;;;5.70;97.70;;;;;;5076176;28;20264;-74
2021/04/06 07:43:28;;;;;;;8.40;7.00;;;5.80;97.50;;;;;;5075670;28;20230;-74
2021/04/06 07:45:54;;;;;;;7.55;6.25;;;5.80;96.70;;;;;;5075638;28;20184;-74
2021/04/06 07:48:40;;;;;;;6.18;5.57;;;5.80;97.40;;;;;;5076131;28;20531;-74
2021/04/06 07:51:18;;;;;;;6.35;5.75;;;5.80;96.90;;;;;;5075655;28;20173;-74
2021/04/06 07:54:04;;;;;;;6.30;5.75;;;5.90;96.90;;;;;;5075126;28;20528;-74
2021/04/06 07:56:55;;;;;;;5.75;5.25;;;6.00;97.00;;;;;;5074985;28;20173;-74
2021/04/06 07:59:20;;;;;;;6.28;5.65;;;6.10;96.80;;;;;;5075710;28;20647;-74
2021/04/06 08:02:06;;;;;;;8.90;8.00;;;6.10;96.40;;;;;;5074993;28;20165;-74
2021/04/06 08:04:38;;;;;;;8.45;7.55;;;6.20;96.50;;;;;;5073623;28;20235;-74
2021/04/06 08:07:19;;;;;;;10.93;9.02;;;6.20;96.30;;;;;;5075487;28;20177;-74
2021/04/06 08:09:50;;;;;;;9.88;8.27;;;6.30;97.30;;;;;;5074804;28;20181;-73
2021/04/06 08:12:20;;;;;;;13.98;10.07;;;6.40;96.80;;;;;;5075549;28;20658;-74
2021/04/06 08:15:11;;;;;;;13.18;10.32;;;6.50;96.00;;;;;;5074615;28;20214;-74
2021/04/06 08:17:45;;;;;;;14.90;11.87;;;6.60;96.20;;;;;;5074726;28;20205;-74
2021/04/06 08:20:14;;;;;;;18.50;12.67;;;6.60;96.50;;;;;;5075561;28;20774;-74
2021/04/06 08:23:02;;;;;;;13.83;12.43;;;6.60;96.10;;;;;;5074609;28;20402;-74
2021/04/06 08:25:31;;;;;;;14.13;10.87;;;6.70;96.20;;;;;;5074686;28;20404;-74
2021/04/06 08:27:58;;;;;;;12.97;10.83;;;6.80;95.80;;;;;;5075118;28;20446;-74
2021/04/06 08:30:32;;;;;;;18.80;11.43;;;6.90;95.40;;;;;;5075044;28;20410;-74
2021/04/06 08:32:58;;;;;;;17.93;11.63;;;6.90;94.70;;;;;;5075121;28;20484;-74
2021/04/06 08:35:46;;;;;;;15.40;10.93;;;7.00;94.30;;;;;;5073397;28;20521;-74
2021/04/06 08:38:23;;;;;;;15.80;11.30;;;7.00;93.70;;;;;;5074709;28;20503;-74
2021/04/06 08:40:54;;;;;;;13.17;11.67;;;7.00;93.60;;;;;;5074553;28;20501;-74
2021/04/06 08:43:32;;;;;;;13.80;11.47;;;7.00;93.40;;;;;;5074875;28;20398;-74
2021/04/06 08:46:10;;;;;;;16.00;11.97;;;7.00;93.60;;;;;;5074890;28;20430;-74
2021/04/06 08:48:45;;;;;;;12.93;10.90;;;7.00;93.40;;;;;;5072773;28;20410;-74
2021/04/06 08:51:23;;;;;;;13.50;11.30;;;6.90;93.20;;;;;;5074682;28;20434;-74
2021/04/06 08:53:51;;;;;;;14.53;10.80;;;7.00;93.90;;;;;;5074124;28;20170;-74
2021/04/06 08:56:27;;;;;;;14.80;9.53;;;7.00;93.60;;;;;;5074585;28;20471;-74
2021/04/06 08:59:37;;;;;;;13.80;10.20;;;7.10;93.50;;;;;;5074273;28;20781;-74
2021/04/06 09:02:18;;;;;;;13.43;9.17;;;7.10;93.60;;;;;;5073529;28;20429;-74
2021/04/06 09:04:46;;;;;;;11.20;7.80;;;7.20;92.60;;;;;;5073720;28;20493;-74
2021/04/06 09:07:22;;;;;;;11.50;8.60;;;7.10;92.10;;;;;;5074395;28;20424;-74
2021/04/06 09:09:51;;;;;;;9.17;7.50;;;7.00;92.40;;;;;;5074042;28;20425;-74
2021/04/06 09:12:18;;;;;;;13.93;8.73;;;7.00;92.20;;;;;;5074305;28;20738;-74
2021/04/06 09:14:45;;;;;;;10.60;7.57;;;7.00;93.10;;;;;;5073540;28;20708;-74
2021/04/06 09:17:11;;;;;;;12.17;7.33;;;7.00;92.70;;;;;;5074148;28;20213;-74
2021/04/06 09:19:38;;;;;;;11.00;6.88;;;6.80;92.80;;;;;;5073634;28;20763;-74
2021/04/06 09:22:08;;;;;;;11.93;7.40;;;6.90;93.80;;;;;;5074156;28;20176;-74
2021/04/06 09:24:34;;;;;;;9.50;6.73;;;6.90;95.10;;;;;;5073508;28;20375;-74
2021/04/06 09:27:01;;;;;;;8.70;7.90;;;7.20;94.50;;;;;;5072754;28;20424;-74
2021/04/06 09:29:39;;;;;;;8.87;7.67;;;7.50;93.50;;;;;;5073631;28;20472;-74
2021/04/06 09:32:14;;;;;;;9.57;7.87;;;7.80;92.80;;;;;;5073669;28;20394;-74
2021/04/06 09:34:43;;;;;;;7.70;6.97;;;8.00;91.90;;;;;;5073084;28;20456;-74
2021/04/06 09:37:20;;;;;;;7.17;6.03;;;8.10;91.00;;;;;;5073603;28;20776;-74
2021/04/06 09:39:51;;;;;;;6.90;6.20;;;8.10;90.00;;;;;;5073153;28;20387;-74
2021/04/06 09:42:17;;;;;;;5.37;4.87;;;7.90;89.50;;;;;;5073773;28;20380;-73
2021/04/06 09:44:46;;;;;;;6.67;5.63;;;7.60;90.80;;;;;;5072636;28;20379;-74
2021/04/06 09:47:15;;;;;;;8.00;6.77;;;7.50;92.40;;;;;;5072695;28;20422;-74
2021/04/06 09:49:47;;;;;;;7.70;5.47;;;7.20;93.50;;;;;;5072892;28;20383;-74
2021/04/06 09:52:20;;;;;;;5.57;5.07;;;7.00;94.20;;;;;;5073667;28;20374;-74
2021/04/06 09:54:56;;;;;;;5.97;5.37;;;6.90;95.50;;;;;;5072833;28;20897;-74
2021/04/06 09:57:30;;;;;;;6.90;5.60;;;6.60;94.70;;;;;;5073095;28;20403;-74
2021/04/06 09:59:57;;;;;;;6.53;5.25;;;6.50;95.50;;;;;;5073387;28;20256;-74
2021/04/06 10:02:28;;;;;;;8.23;7.50;;;6.70;96.40;;;;;;5073004;28;20526;-74
2021/04/06 10:04:54;;;;;;;6.60;5.47;;;7.00;97.10;;;;;;5072720;28;20750;-74
2021/04/06 10:07:28;;;;;;;6.80;4.27;;;7.40;97.10;;;;;;5073183;28;20469;-74
2021/04/06 10:10:00;;;;;;;7.87;5.10;;;7.80;95.60;;;;;;5072565;28;20413;-75
2021/04/06 10:12:29;;;;;;;6.57;5.93;;;8.10;94.40;;;;;;5073400;28;20389;-74
2021/04/06 10:14:55;;;;;;;5.60;5.10;;;8.40;93.20;;;;;;5071264;28;20375;-75
2021/04/06 10:17:37;;;;;;;6.70;5.23;;;8.80;93.10;;;;;;5071973;28;20784;-74
2021/04/06 10:20:10;;;;;;;7.60;6.77;;;9.20;92.10;;;;;;5073074;28;20388;-75
2021/04/06 10:22:53;;;;;;;7.87;6.07;;;9.20;91.20;;;;;;5072321;28;20889;-75
2021/04/06 10:25:22;;;;;;;7.00;6.23;;;9.40;91.20;;;;;;5073133;28;20403;-75
2021/04/06 10:27:51;;;;;;;5.10;4.67;;;9.50;90.40;;;;;;5072279;28;20407;-75
2021/04/06 10:30:31;;;;;;;5.57;5.00;;;9.40;88.90;;;;;;5072672;28;20907;-75
2021/04/06 10:33:19;;;;;;;7.23;6.70;;;9.40;88.20;;;;;;5073003;28;20891;-75
2021/04/06 10:36:05;;;;;;;5.20;4.73;;;9.40;85.50;;;;;;5072171;28;20511;-75
2021/04/06 10:38:35;;;;;;;5.13;4.63;;;9.30;85.20;;;;;;5071379;28;20446;-75
2021/04/06 10:41:15;;;;;;;7.60;4.40;;;9.10;83.70;;;;;;5072815;28;20486;-75
2021/04/06 10:43:44;;;;;;;6.20;5.60;;;8.90;85.80;;;;;;5069983;28;20910;-76
2021/04/06 10:46:24;;;;;;;7.03;5.30;;;8.90;85.30;;;;;;5072368;28;20423;-74
2021/04/06 10:49:01;;;;;;;6.03;4.90;;;8.70;84.80;;;;;;5070873;28;20416;-74
2021/04/06 10:51:28;;;;;;;6.17;5.57;;;8.60;87.60;;;;;;5072700;28;20399;-74
2021/04/06 10:53:56;;;;;;;4.60;4.30;;;8.60;90.00;;;;;;5071024;28;20415;-74
2021/04/06 10:56:22;;;;;;;7.23;3.77;;;8.80;90.00;;;;;;5072531;28;20789;-74
2021/04/06 10:58:55;;;;;;;3.93;3.63;;;8.90;90.60;;;;;;5071802;28;20522;-75
2021/04/06 11:01:26;;;;;;;3.63;3.37;;;9.20;89.90;;;;;;5072418;28;20168;-75
2021/04/06 11:03:57;;;;;;;7.93;4.10;;;9.40;86.50;;;;;;5072204;28;20403;-74
2021/04/06 11:06:35;;;;;;;7.17;5.70;;;9.50;85.30;;;;;;5072544;28;20379;-74
2021/04/06 11:09:23;;;;;;;6.20;5.80;;;9.60;88.30;;;;;;5072141;28;20419;-74
2021/04/06 11:11:52;;;;;;;6.13;5.63;;;9.80;88.90;;;;;;5070683;28;20392;-74
2021/04/06 11:14:20;;;;;;;4.47;4.07;;;10.10;85.70;;;;;;5071203;28;20406;-74
2021/04/06 11:16:47;;;;;;;7.27;5.73;;;10.40;87.10;;;;;;5071906;28;20414;-74
2021/04/06 11:19:25;;;;;;;5.07;4.77;;;10.60;85.20;;;;;;5072040;28;20412;-74
2021/04/06 11:21:53;;;;;;;5.17;4.70;;;10.80;83.80;;;;;;5071755;28;20962;-74
2021/04/06 11:24:21;;;;;;;5.63;4.07;;;11.10;80.50;;;;;;5072546;28;20791;-74
2021/04/06 11:26:48;;;;;;;4.80;4.40;;;11.20;77.40;;;;;;5071643;28;20406;-74
2021/04/06 11:29:15;;;;;;;5.80;5.30;;;11.10;76.50;;;;;;5072240;28;20741;-74
2021/04/06 11:31:44;;;;;;;4.53;4.23;;;11.10;74.70;;;;;;5071663;28;20408;-74
2021/04/06 11:34:12;;;;;;;4.80;4.23;;;10.90;74.00;;;;;;5070866;28;20858;-74
2021/04/06 11:36:38;;;;;;;4.60;4.00;;;10.70;74.00;;;;;;5071038;28;20982;-75
2021/04/06 11:39:07;;;;;;;4.50;4.17;;;10.50;74.20;;;;;;5072394;28;20416;-75
2021/04/06 11:41:34;;;;;;;5.73;4.40;;;10.40;74.10;;;;;;5072227;28;20424;-75
2021/04/06 11:44:00;;;;;;;4.43;3.93;;;10.40;74.80;;;;;;5071582;28;20435;-75
2021/04/06 11:46:26;;;;;;;4.63;4.23;;;10.60;74.30;;;;;;5071835;28;20506;-75
2021/04/06 11:48:52;;;;;;;4.10;3.77;;;10.80;71.60;;;;;;5071507;28;20455;-75
2021/04/06 11:51:18;;;;;;;3.70;3.50;;;11.00;75.40;;;;;;5072249;28;20194;-75
2021/04/06 11:53:44;;;;;;;4.10;3.80;;;11.10;70.70;;;;;;5071162;28;20310;-75
2021/04/06 11:56:10;;;;;;;4.20;3.90;;;11.20;69.50;;;;;;5074335;28;20418;-75
2021/04/06 11:58:36;;;;;;;3.80;3.50;;;11.10;67.50;;;;;;5075655;28;20465;-75
2021/04/06 12:01:03;;;;;;;4.73;4.43;;;11.20;69.50;;;;;;5075357;28;20395;-75
2021/04/06 12:03:28;;;;;;;4.17;3.87;;;11.40;69.80;;;;;;5075623;28;20469;-75
2021/04/06 12:05:54;;;;;;;4.43;4.23;;;11.40;69.20;;;;;;5074867;28;20411;-75
2021/04/06 12:08:20;;;;;;;4.60;4.00;;;11.20;67.20;;;;;;5075448;28;20404;-75
2021/04/06 12:10:47;;;;;;;4.00;3.73;;;11.00;65.80;;;;;;5074931;28;20171;-76
2021/04/06 12:13:14;;;;;;;3.80;3.60;;;10.80;65.60;;;;;;5075424;28;20401;-75
2021/04/06 12:15:40;;;;;;;4.60;4.27;;;10.70;65.40;;;;;;5074326;28;20943;-76
2021/04/06 12:18:06;;;;;;;3.60;3.40;;;10.60;66.10;;;;;;5075291;28;20455;-76
2021/04/06 12:20:32;;;;;;;4.30;3.97;;;10.40;64.50;;;;;;5075314;28;20444;-76
2021/04/06 12:22:58;;;;;;;4.37;3.97;;;10.30;65.00;;;;;;5074655;28;20949;-75
2021/04/06 12:25:24;;;;;;;3.27;3.07;;;10.10;66.30;;;;;;5074939;28;20446;-74
2021/04/06 12:27:50;;;;;;;5.33;2.80;;;9.80;72.30;;;;;;5074549;28;20512;-75
2021/04/06 12:30:16;;;;;;;3.63;3.30;;;9.50;78.60;;;;;;5075107;28;20232;-76
2021/04/06 12:32:42;;;;;;;4.50;3.57;;;9.10;81.80;;;;;;5074340;28;20898;-74
2021/04/06 12:35:09;;;;;;;3.73;3.30;;;8.80;85.40;;;;;;5073565;28;20450;-74
2021/04/06 12:37:35;;;;;;;3.93;3.63;;;8.60;86.30;;;;;;5074915;28;20468;-74
2021/04/06 12:40:04;;;;;;;6.30;5.70;;;8.40;88.00;;;;;;5074293;28;20429;-74
2021/04/06 12:42:30;;;;;;;6.63;5.60;;;8.20;90.10;;;;;;5074933;28;20520;-74
2021/04/06 12:44:56;;;;;;;5.77;5.33;;;8.00;91.00;;;;;;5074233;28;20874;-74
2021/04/06 12:47:22;;;;;;;5.87;5.47;;;8.00;92.20;;;;;;5073663;28;20188;-74
2021/04/06 12:49:48;;;;;;;5.00;4.50;;;8.00;92.00;;;;;;5074149;28;20761;-75
2021/04/06 12:52:14;;;;;;;5.00;4.70;;;8.00;92.00;;;;;;5074655;28;20368;-74
2021/04/06 12:54:39;;;;;;;4.87;4.57;;;8.00;92.10;;;;;;5074588;28;20424;-74
2021/04/06 12:57:05;;;;;;;3.50;3.20;;;8.10;92.60;;;;;;5074497;28;20454;-74
2021/04/06 12:59:31;;;;;;;3.50;3.30;;;8.20;92.70;;;;;;5074569;28;20402;-75
2021/04/06 13:01:57;;;;;;;3.20;3.10;;;8.20;92.80;;;;;;5074022;28;20226;-74
2021/04/06 13:04:23;;;;;;;3.60;3.40;;;8.20;92.70;;;;;;5074416;28;20504;-74
2021/04/06 13:06:49;;;;;;;3.67;3.37;;;8.30;92.50;;;;;;5072609;28;20933;-74
2021/04/06 13:09:14;;;;;;;4.27;4.03;;;8.20;91.60;;;;;;5074478;28;20275;-74
2021/04/06 13:11:40;;;;;;;3.10;2.90;;;8.20;90.80;;;;;;5074090;28;20284;-75